Wetterstation Vordersexau
Wetterdaten: Woche 28.09.15 - 04.10.15 (KW40)
Datum Zeit Temp. A. Feuchte A. Luftdruck Regen Wind Richtung Taupunkt Windchill Windben
28.09.2015 00:00 5,1 C 82 % 1027,2 hPa 0,0 l/m 0,0 km/h SO 2,3 C 5,1 C 0,0 km/h
28.09.2015 01:00 4,8 C 83 % 1027,2 hPa 0,0 l/m 0,0 km/h SO 2,2 C 4,8 C 0,0 km/h
28.09.2015 02:00 3,9 C 84 % 1027,4 hPa 0,0 l/m 0,0 km/h SO 1,4 C 3,9 C 0,0 km/h
28.09.2015 03:00 3,2 C 84 % 1027,5 hPa 0,0 l/m 0,0 km/h SO 0,8 C 3,2 C 0,0 km/h
28.09.2015 04:00 3,0 C 85 % 1027,4 hPa 0,0 l/m 0,0 km/h SO 0,7 C 3,0 C 0,0 km/h
28.09.2015 05:00 2,4 C 85 % 1027,6 hPa 0,0 l/m 0,0 km/h SO 0,1 C 2,4 C 0,0 km/h
28.09.2015 06:00 2,8 C 86 % 1027,7 hPa 0,0 l/m 0,0 km/h O 0,7 C 2,8 C 0,0 km/h
28.09.2015 07:00 2,5 C 86 % 1028,1 hPa 0,0 l/m 0,0 km/h O-SO 0,4 C 2,5 C 0,0 km/h
28.09.2015 08:00 4,9 C 86 % 1028,7 hPa 0,0 l/m 0,0 km/h S-SO 2,8 C 4,9 C 0,0 km/h
28.09.2015 09:00 12,5 C 84 % 1028,9 hPa 0,0 l/m 0,0 km/h N-NO 9,9 C 12,5 C 0,0 km/h
28.09.2015 10:00 17,9 C 54 % 1028,7 hPa 0,0 l/m 0,0 km/h N 8,5 C 17,9 C 0,0 km/h
28.09.2015 11:00 19,8 C 45 % 1028,4 hPa 0,0 l/m 1,9 km/h N-NO 7,5 C 19,8 C 1,1 km/h
28.09.2015 12:00 21,5 C 42 % 1027,9 hPa 0,0 l/m 0,0 km/h SO 8,0 C 21,5 C 0,0 km/h
28.09.2015 13:00 21,6 C 39 % 1027,8 hPa 0,0 l/m 0,0 km/h N-NO 7,0 C 21,6 C 0,0 km/h
28.09.2015 14:00 22,1 C 36 % 1027,5 hPa 0,0 l/m 20,1 km/h O-SO 6,3 C 18,9 C 11,2 km/h
28.09.2015 15:00 23,9 C 33 % 1026,9 hPa 0,0 l/m 15,6 km/h NO 6,6 C 21,9 C 8,6 km/h
28.09.2015 16:00 22,0 C 34 % 1027,5 hPa 0,0 l/m 0,0 km/h O-NO 5,4 C 22,0 C 0,0 km/h
28.09.2015 17:00 16,8 C 42 % 1027,4 hPa 0,0 l/m 0,0 km/h O-NO 3,8 C 16,8 C 0,0 km/h
28.09.2015 18:00 15,1 C 45 % 1027,5 hPa 0,0 l/m 0,0 km/h NO 3,3 C 15,1 C 0,0 km/h
28.09.2015 19:00 12,6 C 50 % 1027,7 hPa 0,0 l/m 0,0 km/h N-NO 2,5 C 12,6 C 0,0 km/h
28.09.2015 20:00 11,1 C 55 % 1027,9 hPa 0,0 l/m 0,0 km/h N-NO 2,4 C 11,1 C 0,0 km/h
28.09.2015 21:00 10,6 C 57 % 1027,5 hPa 0,0 l/m 0,0 km/h N-NW 2,4 C 10,6 C 0,0 km/h
28.09.2015 22:00 10,4 C 59 % 1027,2 hPa 0,0 l/m 3,9 km/h W-NW 2,7 C 10,4 C 2,2 km/h
28.09.2015 23:00 11,1 C 58 % 1026,7 hPa 0,0 l/m 0,0 km/h N-NO 3,2 C 11,1 C 0,0 km/h
29.09.2015 00:00 10,8 C 60 % 1026,1 hPa 0,0 l/m 11,0 km/h N-NO 3,4 C 7,9 C 6,1 km/h
29.09.2015 01:00 11,1 C 58 % 1025,7 hPa 0,0 l/m 21,4 km/h W 3,2 C 4,3 C 11,9 km/h
29.09.2015 02:00 9,0 C 63 % 1025,6 hPa 0,0 l/m 0,0 km/h O-SO 2,3 C 9,0 C 0,0 km/h
29.09.2015 03:00 10,2 C 60 % 1025,2 hPa 0,0 l/m 0,0 km/h SO 2,8 C 10,2 C 0,0 km/h
29.09.2015 04:00 10,9 C 57 % 1024,8 hPa 0,0 l/m 1,3 km/h O-NO 2,7 C 10,9 C 0,7 km/h
29.09.2015 05:00 11,3 C 55 % 1025,0 hPa 0,0 l/m 0,0 km/h NO 2,6 C 11,3 C 0,0 km/h
29.09.2015 06:00 10,4 C 58 % 1024,8 hPa 0,0 l/m 0,0 km/h NO 2,5 C 10,4 C 0,0 km/h
29.09.2015 07:00 10,6 C 57 % 1025,2 hPa 0,0 l/m 0,0 km/h N 2,4 C 10,6 C 0,0 km/h
29.09.2015 08:00 11,7 C 58 % 1025,7 hPa 0,0 l/m 0,0 km/h N-NO 3,7 C 11,7 C 0,0 km/h
29.09.2015 09:00 14,3 C 50 % 1025,7 hPa 0,0 l/m 8,4 km/h O-NO 4,0 C 13,1 C 4,7 km/h
29.09.2015 10:00 17,2 C 45 % 1025,7 hPa 0,0 l/m 1,9 km/h O-NO 5,2 C 17,2 C 1,1 km/h
29.09.2015 11:00 18,9 C 40 % 1025,4 hPa 0,0 l/m 0,0 km/h O 5,0 C 18,9 C 0,0 km/h
29.09.2015 12:00 20,9 C 37 % 1025,2 hPa 0,0 l/m 0,0 km/h SO 5,7 C 20,9 C 0,0 km/h
29.09.2015 13:00 21,6 C 38 % 1024,9 hPa 0,0 l/m 19,4 km/h N-NO 6,7 C 18,4 C 10,8 km/h
29.09.2015 14:00 23,6 C 33 % 1024,3 hPa 0,0 l/m 0,0 km/h N-NO 6,4 C 23,6 C 0,0 km/h
29.09.2015 15:00 25,1 C 32 % 1023,9 hPa 0,0 l/m 2,6 km/h N-NO 7,2 C 25,1 C 1,4 km/h
29.09.2015 16:00 24,9 C 31 % 1024,0 hPa 0,0 l/m 1,3 km/h N-NO 6,6 C 24,9 C 0,7 km/h
29.09.2015 17:00 24,0 C 32 % 1024,2 hPa 0,0 l/m 0,0 km/h NO 6,3 C 24,0 C 0,0 km/h
29.09.2015 18:00 20,1 C 36 % 1024,5 hPa 0,0 l/m 6,5 km/h SO 4,6 C 20,1 C 3,6 km/h
29.09.2015 19:00 14,7 C 45 % 1024,9 hPa 0,0 l/m 1,3 km/h N-NO 2,9 C 14,7 C 0,7 km/h
29.09.2015 20:00 12,9 C 50 % 1025,3 hPa 0,0 l/m 0,0 km/h O-SO 2,7 C 12,9 C 0,0 km/h
29.09.2015 21:00 13,4 C 49 % 1024,8 hPa 0,0 l/m 0,0 km/h N-NO 2,9 C 13,4 C 0,0 km/h
29.09.2015 22:00 12,7 C 51 % 1024,9 hPa 0,0 l/m 1,9 km/h N-NO 2,8 C 12,7 C 1,1 km/h
29.09.2015 23:00 12,3 C 54 % 1024,8 hPa 0,0 l/m 18,8 km/h N-NO 3,3 C 6,6 C 10,4 km/h
30.09.2015 00:00 9,5 C 61 % 1024,8 hPa 0,0 l/m 1,9 km/h N-NO 2,4 C 9,5 C 1,1 km/h
30.09.2015 01:00 7,9 C 66 % 1024,5 hPa 0,0 l/m 3,9 km/h NO 1,9 C 7,9 C 2,2 km/h
30.09.2015 02:00 5,9 C 74 % 1024,6 hPa 0,0 l/m 0,0 km/h SO 1,6 C 5,9 C 0,0 km/h
30.09.2015 03:00 4,9 C 78 % 1024,6 hPa 0,0 l/m 0,0 km/h SO 1,4 C 4,9 C 0,0 km/h
30.09.2015 04:00 4,3 C 80 % 1024,6 hPa 0,0 l/m 0,0 km/h SO 1,2 C 4,3 C 0,0 km/h
30.09.2015 05:00 2,8 C 81 % 1024,5 hPa 0,0 l/m 0,0 km/h O -0,1 C 2,8 C 0,0 km/h
30.09.2015 06:00 2,5 C 83 % 1024,6 hPa 0,0 l/m 0,0 km/h O-NO -0,1 C 2,5 C 0,0 km/h
30.09.2015 07:00 2,2 C 84 % 1025,2 hPa 0,0 l/m 0,0 km/h O-SO -0,2 C 2,2 C 0,0 km/h
30.09.2015 08:00 4,9 C 85 % 1025,4 hPa 0,0 l/m 0,0 km/h O-NO 2,6 C 4,9 C 0,0 km/h
30.09.2015 09:00 12,7 C 76 % 1025,6 hPa 0,0 l/m 0,0 km/h N-NO 8,6 C 12,7 C 0,0 km/h
30.09.2015 10:00 17,6 C 54 % 1025,6 hPa 0,0 l/m 0,0 km/h W-SW 8,2 C 17,6 C 0,0 km/h
30.09.2015 11:00 20,7 C 45 % 1025,0 hPa 0,0 l/m 2,6 km/h O-SO 8,3 C 20,7 C 1,4 km/h
30.09.2015 12:00 21,9 C 39 % 1024,2 hPa 0,0 l/m 0,0 km/h S-SO 7,3 C 21,9 C 0,0 km/h
30.09.2015 13:00 22,8 C 38 % 1023,9 hPa 0,0 l/m 0,0 km/h N-NO 7,7 C 22,8 C 0,0 km/h
30.09.2015 14:00 23,5 C 33 % 1023,3 hPa 0,0 l/m 0,0 km/h N-NO 6,3 C 23,5 C 0,0 km/h
30.09.2015 15:00 24,8 C 31 % 1023,2 hPa 0,0 l/m 6,5 km/h NO 6,5 C 24,8 C 3,6 km/h
30.09.2015 16:00 25,9 C 29 % 1023,0 hPa 0,0 l/m 2,6 km/h O 6,5 C 25,9 C 1,4 km/h
30.09.2015 17:00 24,3 C 31 % 1023,1 hPa 0,0 l/m 0,0 km/h O 6,1 C 24,3 C 0,0 km/h
30.09.2015 18:00 20,1 C 35 % 1023,3 hPa 0,0 l/m 0,0 km/h N-NW 4,2 C 20,1 C 0,0 km/h
30.09.2015 19:00 14,1 C 45 % 1023,7 hPa 0,0 l/m 3,2 km/h N-NO 2,4 C 14,1 C 1,8 km/h
30.09.2015 20:00 13,6 C 47 % 1023,9 hPa 0,0 l/m 9,7 km/h N-NO 2,5 C 11,7 C 5,4 km/h
30.09.2015 21:00 13,0 C 48 % 1023,7 hPa 0,0 l/m 0,0 km/h N-NO 2,3 C 13,0 C 0,0 km/h
30.09.2015 22:00 12,2 C 50 % 1023,6 hPa 0,0 l/m 0,0 km/h N-NO 2,1 C 12,2 C 0,0 km/h
30.09.2015 23:00 11,3 C 51 % 1023,7 hPa 0,0 l/m 0,0 km/h N-NO 1,5 C 11,3 C 0,0 km/h
01.10.2015 00:00 10,1 C 54 % 1023,4 hPa 0,0 l/m 0,0 km/h N-NO 1,2 C 10,1 C 0,0 km/h
01.10.2015 01:00 9,3 C 57 % 1022,8 hPa 0,0 l/m 0,0 km/h N-NO 1,2 C 9,3 C 0,0 km/h
01.10.2015 02:00 6,3 C 63 % 1022,5 hPa 0,0 l/m 0,0 km/h S-SO -0,2 C 6,3 C 0,0 km/h
01.10.2015 03:00 3,8 C 68 % 1022,1 hPa 0,0 l/m 0,0 km/h SO -1,6 C 3,8 C 0,0 km/h
01.10.2015 04:00 3,5 C 73 % 1021,7 hPa 0,0 l/m 0,0 km/h O-SO -0,9 C 3,5 C 0,0 km/h
01.10.2015 05:00 4,8 C 73 % 1021,5 hPa 0,0 l/m 0,0 km/h SO 0,4 C 4,8 C 0,0 km/h
01.10.2015 06:00 3,3 C 75 % 1021,4 hPa 0,0 l/m 0,0 km/h NO -0,7 C 3,3 C 0,0 km/h
01.10.2015 07:00 1,6 C 79 % 1021,8 hPa 0,0 l/m 0,0 km/h S-SO -1,6 C 1,6 C 0,0 km/h
01.10.2015 08:00 4,4 C 83 % 1022,0 hPa 0,0 l/m 0,0 km/h W-NW 1,8 C 4,4 C 0,0 km/h
01.10.2015 09:00 11,1 C 64 % 1022,1 hPa 0,0 l/m 0,0 km/h N-NO 4,6 C 11,1 C 0,0 km/h
01.10.2015 10:00 15,6 C 49 % 1022,3 hPa 0,0 l/m 0,0 km/h W 4,9 C 15,6 C 0,0 km/h
01.10.2015 11:00 16,9 C 45 % 1022,3 hPa 0,0 l/m 5,8 km/h W 4,9 C 16,9 C 3,2 km/h
01.10.2015 12:00 18,8 C 43 % 1022,3 hPa 0,0 l/m 1,9 km/h W 6,0 C 18,8 C 1,1 km/h
01.10.2015 13:00 19,4 C 42 % 1022,1 hPa 0,0 l/m 1,9 km/h W-NW 6,2 C 19,4 C 1,1 km/h
01.10.2015 14:00 20,6 C 42 % 1021,4 hPa 0,0 l/m 3,2 km/h W 7,2 C 20,6 C 1,8 km/h
01.10.2015 15:00 22,1 C 39 % 1021,2 hPa 0,0 l/m 0,0 km/h S 7,5 C 22,1 C 0,0 km/h
01.10.2015 16:00 25,1 C 35 % 1021,2 hPa 0,0 l/m 0,6 km/h W-SW 8,6 C 25,1 C 0,4 km/h
01.10.2015 17:00 24,3 C 34 % 1021,1 hPa 0,0 l/m 0,0 km/h S-SO 7,4 C 24,3 C 0,0 km/h
01.10.2015 18:00 22,1 C 39 % 1021,2 hPa 0,0 l/m 0,0 km/h O-SO 7,5 C 22,1 C 0,0 km/h
01.10.2015 19:00 11,1 C 61 % 1021,8 hPa 0,0 l/m 0,0 km/h O-SO 3,9 C 11,1 C 0,0 km/h
01.10.2015 20:00 8,5 C 71 % 1022,0 hPa 0,0 l/m 0,0 km/h O-NO 3,5 C 8,5 C 0,0 km/h
01.10.2015 21:00 7,3 C 77 % 1022,3 hPa 0,0 l/m 0,0 km/h SO 3,5 C 7,3 C 0,0 km/h
01.10.2015 22:00 6,1 C 78 % 1022,2 hPa 0,0 l/m 0,0 km/h O-NO 2,6 C 6,1 C 0,0 km/h
01.10.2015 23:00 5,4 C 81 % 1022,1 hPa 0,0 l/m 0,0 km/h SO 2,4 C 5,4 C 0,0 km/h
02.10.2015 00:00 4,3 C 82 % 1021,8 hPa 0,0 l/m 0,0 km/h SO 1,5 C 4,3 C 0,0 km/h
02.10.2015 01:00 2,9 C 83 % 1021,5 hPa 0,0 l/m 0,0 km/h NO 0,3 C 2,9 C 0,0 km/h
02.10.2015 02:00 3,3 C 84 % 1021,4 hPa 0,0 l/m 0,0 km/h NO 0,9 C 3,3 C 0,0 km/h
02.10.2015 03:00 2,1 C 85 % 1021,5 hPa 0,0 l/m 0,0 km/h O-NO -0,2 C 2,1 C 0,0 km/h
02.10.2015 04:00 2,6 C 85 % 1021,2 hPa 0,0 l/m 0,0 km/h O-NO 0,3 C 2,6 C 0,0 km/h
02.10.2015 05:00 2,5 C 86 % 1020,7 hPa 0,0 l/m 0,0 km/h O-NO 0,4 C 2,5 C 0,0 km/h
02.10.2015 06:00 1,6 C 86 % 1020,3 hPa 0,0 l/m 0,0 km/h O-NO -0,5 C 1,6 C 0,0 km/h
02.10.2015 07:00 1,8 C 86 % 1020,2 hPa 0,0 l/m 0,0 km/h O-NO -0,3 C 1,8 C 0,0 km/h
02.10.2015 08:00 4,3 C 85 % 1020,2 hPa 0,0 l/m 0,0 km/h W-SW 2,0 C 4,3 C 0,0 km/h
02.10.2015 09:00 8,8 C 85 % 1020,1 hPa 0,0 l/m 0,0 km/h W-NW 6,4 C 8,8 C 0,0 km/h
02.10.2015 10:00 13,5 C 70 % 1020,2 hPa 0,0 l/m 0,0 km/h W 8,1 C 13,5 C 0,0 km/h
02.10.2015 11:00 16,6 C 60 % 1019,6 hPa 0,0 l/m 3,2 km/h S-SW 8,8 C 16,6 C 1,8 km/h
02.10.2015 12:00 18,9 C 53 % 1018,5 hPa 0,0 l/m 2,6 km/h NW 9,1 C 18,9 C 1,4 km/h
02.10.2015 13:00 19,4 C 51 % 1017,7 hPa 0,0 l/m 3,2 km/h N 9,0 C 19,4 C 1,8 km/h
02.10.2015 14:00 21,8 C 47 % 1016,7 hPa 0,0 l/m 0,0 km/h NW 10,0 C 21,8 C 0,0 km/h
02.10.2015 15:00 23,6 C 42 % 1015,9 hPa 0,0 l/m 1,9 km/h W 9,9 C 23,6 C 1,1 km/h
02.10.2015 16:00 24,3 C 40 % 1015,4 hPa 0,0 l/m 8,4 km/h NW 9,8 C 23,8 C 4,7 km/h
02.10.2015 17:00 21,1 C 43 % 1014,9 hPa 0,0 l/m 0,0 km/h W 8,0 C 21,1 C 0,0 km/h
02.10.2015 18:00 19,6 C 52 % 1014,7 hPa 0,0 l/m 0,0 km/h W-NW 9,5 C 19,6 C 0,0 km/h
02.10.2015 19:00 12,8 C 68 % 1014,8 hPa 0,0 l/m 0,0 km/h S-SW 7,0 C 12,8 C 0,0 km/h
02.10.2015 20:00 11,6 C 75 % 1014,6 hPa 0,0 l/m 0,0 km/h S-SW 7,3 C 11,6 C 0,0 km/h
02.10.2015 21:00 10,6 C 77 % 1014,6 hPa 0,0 l/m 0,0 km/h S-SW 6,7 C 10,6 C 0,0 km/h
02.10.2015 22:00 9,9 C 80 % 1014,6 hPa 0,0 l/m 0,0 km/h O-SO 6,6 C 9,9 C 0,0 km/h
02.10.2015 23:00 9,2 C 82 % 1014,7 hPa 0,0 l/m 0,0 km/h O-SO 6,3 C 9,2 C 0,0 km/h
03.10.2015 00:00 8,3 C 83 % 1014,6 hPa 0,0 l/m 0,0 km/h O 5,6 C 8,3 C 0,0 km/h
03.10.2015 01:00 9,1 C 84 % 1014,7 hPa 0,0 l/m 0,0 km/h O-SO 6,5 C 9,1 C 0,0 km/h
03.10.2015 02:00 8,8 C 85 % 1014,7 hPa 0,0 l/m 0,0 km/h SO 6,4 C 8,8 C 0,0 km/h
03.10.2015 03:00 8,1 C 85 % 1014,7 hPa 0,0 l/m 0,0 km/h SO 5,7 C 8,1 C 0,0 km/h
03.10.2015 04:00 7,1 C 85 % 1014,9 hPa 0,0 l/m 0,0 km/h SO 4,8 C 7,1 C 0,0 km/h
03.10.2015 05:00 7,1 C 85 % 1015,2 hPa 0,0 l/m 1,3 km/h SO 4,8 C 7,1 C 0,7 km/h
03.10.2015 06:00 6,9 C 85 % 1014,8 hPa 0,0 l/m 0,0 km/h SO 4,6 C 6,9 C 0,0 km/h
03.10.2015 07:00 6,8 C 85 % 1015,0 hPa 0,0 l/m 0,0 km/h SO 4,5 C 6,8 C 0,0 km/h
03.10.2015 08:00 8,4 C 84 % 1015,4 hPa 0,0 l/m 0,0 km/h O-NO 5,9 C 8,4 C 0,0 km/h
03.10.2015 09:00 13,6 C 85 % 1015,7 hPa 0,0 l/m 0,0 km/h W-SW 11,1 C 13,6 C 0,0 km/h
03.10.2015 10:00 20,9 C 61 % 1015,8 hPa 0,0 l/m 0,0 km/h W-SW 13,1 C 20,9 C 0,0 km/h
03.10.2015 11:00 22,1 C 50 % 1015,5 hPa 0,0 l/m 18,1 km/h S-SW 11,2 C 19,2 C 10,1 km/h
03.10.2015 12:00 23,8 C 46 % 1014,4 hPa 0,0 l/m 18,8 km/h SW 11,5 C 21,3 C 10,4 km/h
03.10.2015 13:00 25,4 C 41 % 1013,3 hPa 0,0 l/m 0,0 km/h W 11,2 C 25,4 C 0,0 km/h
03.10.2015 14:00 25,5 C 39 % 1013,3 hPa 0,0 l/m 11,0 km/h W 10,5 C 24,5 C 6,1 km/h
03.10.2015 15:00 24,5 C 41 % 1012,8 hPa 0,0 l/m 0,0 km/h S-SO 10,4 C 24,5 C 0,0 km/h
03.10.2015 16:00 26,9 C 36 % 1012,3 hPa 0,0 l/m 0,6 km/h W 10,6 C 26,9 C 0,4 km/h
03.10.2015 17:00 30,4 C 30 % 1012,0 hPa 0,0 l/m 0,0 km/h W-NW 10,9 C 30,4 C 0,0 km/h
03.10.2015 18:00 20,8 C 46 % 1012,2 hPa 0,0 l/m 0,0 km/h SO 8,8 C 20,8 C 0,0 km/h
03.10.2015 19:00 14,8 C 64 % 1011,9 hPa 0,0 l/m 0,0 km/h SO 8,1 C 14,8 C 0,0 km/h
03.10.2015 20:00 13,8 C 69 % 1012,0 hPa 0,0 l/m 0,0 km/h SO 8,2 C 13,8 C 0,0 km/h
03.10.2015 21:00 13,6 C 72 % 1011,6 hPa 0,0 l/m 0,0 km/h O-SO 8,6 C 13,6 C 0,0 km/h
03.10.2015 22:00 13,1 C 74 % 1012,5 hPa 0,0 l/m 0,0 km/h O 8,6 C 13,1 C 0,0 km/h
03.10.2015 23:00 12,9 C 75 % 1013,1 hPa 0,0 l/m 0,0 km/h O 8,6 C 12,9 C 0,0 km/h
04.10.2015 00:00 12,6 C 78 % 1013,1 hPa 0,0 l/m 0,0 km/h O 8,9 C 12,6 C 0,0 km/h
04.10.2015 01:00 13,0 C 82 % 1014,1 hPa 0,0 l/m 1,9 km/h SO 10,0 C 13,0 C 1,1 km/h
04.10.2015 02:00 12,9 C 83 % 1014,4 hPa 0,4 l/m 0,0 km/h SO 10,1 C 12,9 C 0,0 km/h
04.10.2015 03:00 12,6 C 84 % 1014,6 hPa 1,2 l/m 0,0 km/h W-SW 10,0 C 12,6 C 0,0 km/h
04.10.2015 04:00 12,3 C 84 % 1015,5 hPa 2,9 l/m 5,8 km/h S-SO 9,7 C 12,3 C 3,2 km/h
04.10.2015 05:00 11,5 C 85 % 1016,0 hPa 0,8 l/m 2,6 km/h SO 9,1 C 11,5 C 1,4 km/h
04.10.2015 06:00 11,3 C 85 % 1016,4 hPa 0,8 l/m 0,0 km/h SO 8,9 C 11,3 C 0,0 km/h
04.10.2015 07:00 11,1 C 85 % 1016,2 hPa 0,0 l/m 0,0 km/h SO 8,7 C 11,1 C 0,0 km/h
04.10.2015 08:00 11,6 C 85 % 1016,6 hPa 0,0 l/m 0,0 km/h SW 9,2 C 11,6 C 0,0 km/h
04.10.2015 09:00 12,4 C 85 % 1017,4 hPa 0,0 l/m 16,8 km/h S 9,9 C 7,4 C 9,4 km/h
04.10.2015 10:00 16,4 C 75 % 1017,6 hPa 0,0 l/m 9,1 km/h S 12,0 C 15,1 C 5,0 km/h
04.10.2015 11:00 18,9 C 65 % 1017,2 hPa 0,0 l/m 0,0 km/h W 12,2 C 18,9 C 0,0 km/h
04.10.2015 12:00 22,1 C 55 % 1017,0 hPa 0,0 l/m 13,6 km/h W 12,6 C 20,1 C 7,6 km/h
04.10.2015 13:00 20,1 C 52 % 1016,4 hPa 0,0 l/m 16,2 km/h W 9,9 C 17,1 C 9,0 km/h
04.10.2015 14:00 22,6 C 47 % 1015,5 hPa 0,0 l/m 5,8 km/h S 10,7 C 22,6 C 3,2 km/h
04.10.2015 15:00 24,9 C 41 % 1015,3 hPa 0,0 l/m 1,9 km/h W 10,7 C 24,9 C 1,1 km/h
04.10.2015 16:00 25,4 C 39 % 1014,8 hPa 0,0 l/m 0,0 km/h W-NW 10,4 C 25,4 C 0,0 km/h
04.10.2015 17:00 25,9 C 38 % 1014,1 hPa 0,0 l/m 0,0 km/h SO 10,5 C 25,9 C 0,0 km/h
04.10.2015 18:00 17,6 C 53 % 1013,9 hPa 0,0 l/m 1,3 km/h SO 7,9 C 17,6 C 0,7 km/h
04.10.2015 19:00 11,4 C 70 % 1014,0 hPa 0,0 l/m 0,6 km/h O-SO 6,1 C 11,4 C 0,4 km/h
04.10.2015 20:00 10,4 C 78 % 1014,3 hPa 0,0 l/m 0,0 km/h NO 6,7 C 10,4 C 0,0 km/h
04.10.2015 21:00 9,8 C 81 % 1014,0 hPa 0,0 l/m 0,0 km/h SO 6,7 C 9,8 C 0,0 km/h
04.10.2015 22:00 9,2 C 82 % 1014,1 hPa 0,0 l/m 0,0 km/h SO 6,3 C 9,2 C 0,0 km/h
04.10.2015 23:00 8,7 C 84 % 1014,0 hPa 0,0 l/m 0,0 km/h SO 6,2 C 8,7 C 0,0 km/h
Min-Datum _ 01.10.15 30.09.15 03.10.15 - 28.09.15 - 01.10.15 01.10.15 28.09.15
_ Min-Zeit 07:42 16:42 21:42 - 00:42 - 07:42 07:42 00:42
Minimum _ 1,6 C 29 % 1011,6 hPa - 0,0 km/h - -1,6 C 1,6 C 0,0 km/h
Max-Datum _ 03.10.15 28.09.15 28.09.15 04.10.15 29.09.15 - 03.10.15 03.10.15 29.09.15
_ Max-Zeit 17:42 06:42 09:42 04:42 01:42 - 10:42 17:42 01:42
Maximum _ 30,4 C 86 % 1028,9 hPa 2,9 l/m 21,4 km/h
W
- 13,1 C 30,4 C 11,9 km/h
W
Durchschnitt _ 13,5 C 62 % 1020,9 hPa #6,2 l/m 1,9 km/h SO 5,4 C 13,2 C 1,1 km/h
www.sexauwetter.de